Time;durP1;ratioP1;P1;durP2;ratioP2;P2;SDS_P1;SDS_P2;PMS_P1;PMS_P2;Temp;Humidity;BMP_temperature;BMP_pressure;BME280_temperature;BME280_humidity;BME280_pressure;Samples;Min_cycle;Max_cycle;Signal;HPM_P1;HPM_P2
2022/02/02 00:01:50;;;;;;;;;3.00;2.00;;;;;14.07;39.70;96609.16;5004071;27;102097;-79
2022/02/02 00:04:22;;;;;;;;;2.75;2.00;;;;;14.07;39.46;96603.72;5008311;27;103689;-79
2022/02/02 00:07:12;;;;;;;;;2.00;2.00;;;;;14.07;40.15;96592.84;5008561;27;101570;-79
2022/02/02 00:09:48;;;;;;;;;3.75;3.25;;;;;14.07;39.67;96594.75;5015386;27;101993;-79
2022/02/02 00:12:37;;;;;;;;;3.00;2.25;;;;;14.05;40.08;96589.56;5005377;27;102101;-79
2022/02/02 00:18:08;;;;;;;;;3.00;2.00;;;;;14.01;39.57;96588.50;5007004;27;102344;-79
2022/02/02 00:20:49;;;;;;;;;2.00;2.00;;;;;14.02;40.46;96592.84;4999132;27;102027;-79
2022/02/02 00:23:20;;;;;;;;;2.50;2.25;;;;;14.02;40.12;96584.69;5023941;27;101933;-79
2022/02/02 00:25:53;;;;;;;;;2.25;2.25;;;;;13.99;39.80;96585.25;5010311;27;103373;-79
2022/02/02 00:28:24;;;;;;;;;2.50;1.75;;;;;13.98;40.07;96578.16;5002997;27;101944;-79
2022/02/02 00:30:52;;;;;;;;;1.50;1.50;;;;;13.99;40.19;96574.38;5006037;27;102368;-79
2022/02/02 00:33:27;;;;;;;;;2.25;2.25;;;;;13.99;40.51;96574.38;5010249;27;102613;-79
2022/02/02 00:36:04;;;;;;;;;4.50;3.25;;;;;14.03;40.36;96586.31;5012079;27;108347;-79
2022/02/02 00:38:31;;;;;;;;;4.00;2.00;;;;;14.05;40.46;96577.91;5007251;27;103162;-79
2022/02/02 00:40:58;;;;;;;;;1.75;1.50;;;;;14.07;40.23;96568.38;5033308;27;102201;-79
2022/02/02 00:43:25;;;;;;;;;2.00;2.00;;;;;14.05;39.80;96564.31;5008796;27;101859;-80
2022/02/02 00:46:12;;;;;;;;;2.00;2.00;;;;;14.08;40.19;96566.50;5002992;27;109281;-79
2022/02/02 00:48:39;;;;;;;;;3.75;2.00;;;;;14.09;39.95;96584.44;5017911;27;102744;-79
2022/02/02 00:51:07;;;;;;;;;2.00;1.00;;;;;14.10;39.62;96581.41;5009731;27;101882;-79
2022/02/02 00:53:34;;;;;;;;;2.50;2.00;;;;;14.10;39.79;96576.00;5020105;27;101836;-79
2022/02/02 00:56:01;;;;;;;;;3.00;2.50;;;;;14.11;40.42;96580.34;5025524;27;103327;-79
2022/02/02 00:58:28;;;;;;;;;3.00;2.50;;;;;14.12;39.88;96570.28;5016612;27;101916;-79
2022/02/02 01:00:55;;;;;;;;;1.75;0.00;;;;;14.12;39.75;96568.38;5009273;27;102422;-80
2022/02/02 01:03:22;;;;;;;;;3.75;2.00;;;;;14.12;39.93;96565.66;5014147;27;103619;-79
2022/02/02 01:05:49;;;;;;;;;3.00;3.00;;;;;14.11;39.40;96577.63;5002897;27;103398;-79
2022/02/02 01:08:45;;;;;;;;;3.00;3.00;;;;;14.12;39.48;96568.38;4991260;27;101997;-79
2022/02/02 01:11:31;;;;;;;;;2.00;2.00;;;;;14.14;39.71;96571.63;5009026;27;101825;-79
2022/02/02 01:30:09;;;;;;;;;2.00;2.00;;;;;14.15;40.02;96584.13;5015604;27;101546;-79
2022/02/02 01:32:37;;;;;;;;;3.00;2.00;;;;;14.14;40.12;96587.94;4996846;27;102579;-79
2022/02/02 01:35:07;;;;;;;;;2.00;2.00;;;;;14.14;39.77;96595.28;5006352;27;102255;-79
2022/02/02 01:37:35;;;;;;;;;2.00;2.00;;;;;14.12;40.14;96579.25;5007296;27;103355;-79
2022/02/02 01:40:11;;;;;;;;;1.00;1.00;;;;;14.12;40.56;96592.84;5014740;27;102428;-79
2022/02/02 01:42:47;;;;;;;;;3.00;2.00;;;;;14.12;39.81;96590.13;5007885;27;103338;-80
2022/02/02 01:45:20;;;;;;;;;2.50;1.00;;;;;14.11;39.76;96603.97;5011172;27;101916;-79
2022/02/02 01:48:09;;;;;;;;;2.75;1.00;;;;;14.10;39.75;96602.34;4995001;27;103373;-79
2022/02/02 01:51:08;;;;;;;;;2.00;1.00;;;;;14.08;39.35;96597.19;4987772;27;103834;-79
2022/02/02 01:53:40;;;;;;;;;2.50;1.00;;;;;14.08;39.71;96599.09;5015437;27;101844;-79
2022/02/02 01:56:09;;;;;;;;;2.75;1.75;;;;;14.04;40.37;96603.44;5001050;27;102053;-79
2022/02/02 02:01:07;;;;;;;;;2.00;1.00;;;;;14.03;39.77;96599.09;5000215;27;102166;-79
2022/02/02 02:03:34;;;;;;;;;3.75;2.50;;;;;14.02;39.74;96598.28;4988789;27;101853;-79
2022/02/02 02:06:02;;;;;;;;;2.00;1.00;;;;;14.02;40.05;96595.56;4984477;27;101818;-79
2022/02/02 02:08:29;;;;;;;;;2.00;2.00;;;;;14.03;39.67;96607.25;4963358;27;103401;-79
2022/02/02 02:10:57;;;;;;;;;1.00;1.00;;;;;14.02;39.45;96597.47;4999524;27;102626;-80
2022/02/02 02:16:10;;;;;;;;;2.00;2.00;;;;;13.99;39.65;96601.53;4984022;27;104588;-79
2022/02/02 02:18:37;;;;;;;;;1.75;1.50;;;;;14.00;39.64;96596.94;5020213;27;103555;-79
2022/02/02 02:21:10;;;;;;;;;2.75;1.75;;;;;14.00;40.38;96584.16;5020786;27;101980;-79
2022/02/02 02:23:37;;;;;;;;;1.25;1.25;;;;;14.02;40.29;96598.28;5003211;27;101865;-79
2022/02/02 02:26:06;;;;;;;;;2.75;1.75;;;;;14.03;39.95;96589.03;5011758;28;101896;-79
2022/02/02 02:39:42;;;;;;;;;2.00;1.00;;;;;14.13;40.32;96580.06;5002920;27;103398;-79
2022/02/02 02:55:59;;;;;;;;;3.00;2.00;;;;;14.18;39.89;96589.03;5011856;27;102093;-79
2022/02/02 03:50:54;;;;;;;;;1.25;1.25;;;;;14.05;39.92;96616.75;5003139;27;101758;-79
2022/02/02 03:58:33;;;;;;;;;0.50;0.50;;;;;13.99;39.79;96623.28;5017429;27;101962;-79
2022/02/02 04:01:18;;;;;;;;;1.00;1.00;;;;;14.01;40.35;96623.81;5005470;27;105153;-79
2022/02/02 04:06:22;;;;;;;;;2.00;1.00;;;;;14.02;40.31;96622.72;5005295;27;104384;-79
2022/02/02 04:08:49;;;;;;;;;1.25;1.25;;;;;14.02;39.48;96621.91;5005912;27;101734;-80
2022/02/02 04:11:51;;;;;;;;;1.00;0.50;;;;;14.03;40.45;96615.41;5005771;27;102083;-79
2022/02/02 04:52:30;;;;;;;;;2.50;1.50;;;;;13.99;40.65;96631.44;4993742;27;102156;-79
2022/02/02 04:57:59;;;;;;;;;2.00;1.00;;;;;14.00;39.77;96640.41;4997913;27;101821;-80
2022/02/02 05:22:00;;;;;;;;;1.00;0.00;;;;;14.09;40.19;96661.34;4999156;27;103343;-80
2022/02/02 05:28:46;;;;;;;;;0.00;0.00;;;;;14.11;40.64;96645.56;5017507;27;101785;-79
2022/02/02 05:49:53;;;;;;;;;1.50;0.25;;;;;14.17;39.54;96679.00;4996723;27;101973;-79
2022/02/02 05:52:20;;;;;;;;;1.75;0.00;;;;;14.16;40.09;96680.09;5009137;27;101614;-80
2022/02/02 05:54:47;;;;;;;;;0.00;0.00;;;;;14.18;39.95;96686.88;5016748;27;103308;-79
2022/02/02 05:57:14;;;;;;;;;1.00;1.00;;;;;14.17;39.93;96690.69;5011233;27;102366;-79
2022/02/02 05:59:42;;;;;;;;;1.25;1.00;;;;;14.19;39.94;96704.81;5024032;27;102057;-79
2022/02/02 06:02:11;;;;;;;;;0.75;0.00;;;;;14.20;40.30;96705.63;5010822;27;101876;-79
2022/02/02 06:04:46;;;;;;;;;1.00;1.00;;;;;14.19;40.40;96709.44;5004774;27;107689;-80
2022/02/02 06:07:14;;;;;;;;;1.00;0.00;;;;;14.17;40.48;96704.28;5010534;27;101782;-79
2022/02/02 06:09:45;;;;;;;;;0.00;0.00;;;;;14.16;40.51;96705.38;5006776;27;101728;-79
2022/02/02 06:12:16;;;;;;;;;0.00;0.00;;;;;14.15;39.79;96714.59;5021216;27;104511;-79
2022/02/02 06:14:43;;;;;;;;;0.00;0.00;;;;;14.15;40.45;96702.91;5011021;27;108577;-79
2022/02/02 06:17:10;;;;;;;;;0.75;0.50;;;;;14.14;39.66;96717.56;5007759;27;101931;-80
2022/02/02 06:19:37;;;;;;;;;1.00;1.00;;;;;14.12;40.07;96717.06;5005642;27;101918;-80
2022/02/02 06:22:21;;;;;;;;;1.75;1.00;;;;;14.10;40.07;96709.16;5016237;27;101726;-80
2022/02/02 06:25:04;;;;;;;;;1.00;1.00;;;;;14.11;40.37;96716.22;5005220;27;108321;-79
2022/02/02 06:27:34;;;;;;;;;0.00;0.00;;;;;14.09;39.57;96723.03;5002872;27;101485;-79
2022/02/02 06:30:05;;;;;;;;;1.25;1.25;;;;;14.08;39.69;96724.94;4989663;28;102788;-79
2022/02/02 06:32:53;;;;;;;;;0.75;0.75;;;;;14.08;39.96;96724.94;5009193;27;101919;-80
2022/02/02 06:35:20;;;;;;;;;1.25;1.00;;;;;14.07;40.18;96738.78;5001201;27;107972;-79
2022/02/02 06:37:48;;;;;;;;;0.00;0.00;;;;;14.06;39.73;96737.97;5001134;27;102086;-79
2022/02/02 06:40:16;;;;;;;;;1.00;1.00;;;;;14.07;39.75;96744.22;5001740;27;101752;-79
2022/02/02 06:42:43;;;;;;;;;1.00;1.00;;;;;14.07;39.94;96744.22;5014738;27;101714;-79
2022/02/02 06:45:11;;;;;;;;;0.00;0.00;;;;;14.07;39.78;96745.03;5019070;27;107976;-79
2022/02/02 06:47:39;;;;;;;;;1.00;0.00;;;;;14.06;40.31;96748.81;5013729;27;102351;-79
2022/02/02 06:50:13;;;;;;;;;1.00;0.00;;;;;14.07;39.84;96760.53;4997912;27;101865;-77
2022/02/02 06:53:13;;;;;;;;;0.00;0.00;;;;;14.06;40.60;96756.97;5013973;27;101683;-79
2022/02/02 06:56:05;;;;;;;;;0.00;0.00;;;;;14.06;40.19;96758.88;5019448;27;107989;-79
2022/02/02 06:58:43;;;;;;;;;0.25;0.00;;;;;14.05;39.82;96762.72;5014697;27;102866;-80
2022/02/02 07:04:38;;;;;;;;;2.00;1.00;;;;;14.04;40.04;96778.19;5001384;27;101778;-80
2022/02/02 07:07:07;;;;;;;;;1.00;0.00;;;;;14.05;40.25;96774.38;5027576;27;108017;-80
2022/02/02 07:12:20;;;;;;;;;0.50;0.50;;;;;14.08;40.63;96768.41;5005899;27;101810;-80
2022/02/02 07:17:37;;;;;;;;;0.00;0.00;;;;;14.10;40.50;96770.84;5041278;27;103505;-79
2022/02/02 07:23:08;;;;;;;;;1.00;0.50;;;;;14.15;39.87;96777.13;5014316;27;101688;-79
2022/02/02 07:25:57;;;;;;;;;1.50;1.00;;;;;14.16;40.03;96783.38;5014844;27;102213;-79
2022/02/02 07:28:29;;;;;;;;;0.00;0.00;;;;;14.17;40.53;96783.13;4995367;27;108046;-79
2022/02/02 07:31:28;;;;;;;;;1.00;1.00;;;;;14.18;40.14;96783.94;5013438;27;101755;-79
2022/02/02 07:34:08;;;;;;;;;1.00;1.00;;;;;14.20;40.18;96790.72;5006014;27;102078;-79
2022/02/02 07:36:38;;;;;;;;;0.00;0.00;;;;;14.23;40.45;96797.50;5004742;27;105122;-79
2022/02/02 07:39:12;;;;;;;;;0.00;0.00;;;;;14.22;39.73;96799.44;5013007;27;103219;-80
2022/02/02 07:41:43;;;;;;;;;1.00;0.00;;;;;14.24;40.48;96801.88;5001660;27;102490;-80
2022/02/02 07:44:17;;;;;;;;;1.00;1.00;;;;;14.25;39.96;96811.66;5013258;27;101566;-79
2022/02/02 07:46:46;;;;;;;;;0.50;0.50;;;;;14.24;40.37;96799.97;5019079;27;101794;-79
2022/02/02 07:49:18;;;;;;;;;2.00;0.50;;;;;14.23;40.50;96795.63;5003478;27;108326;-79
2022/02/02 07:51:46;;;;;;;;;1.00;0.50;;;;;14.26;40.64;96803.25;5013756;27;101929;-79
2022/02/02 07:54:19;;;;;;;;;1.00;0.50;;;;;14.25;39.66;96801.63;5004807;27;102119;-79
2022/02/02 07:56:57;;;;;;;;;1.00;0.50;;;;;14.25;39.93;96801.63;5014272;27;101960;-79
2022/02/02 07:59:43;;;;;;;;;1.25;1.00;;;;;14.25;39.85;96812.50;5004648;27;103542;-79
2022/02/02 08:02:12;;;;;;;;;1.00;1.00;;;;;14.27;40.61;96812.22;5013240;27;101953;-79
2022/02/02 08:04:39;;;;;;;;;1.25;1.00;;;;;14.25;40.03;96807.06;5010355;27;101876;-79
2022/02/02 08:07:07;;;;;;;;;2.00;1.00;;;;;14.26;40.05;96816.84;5012190;27;101757;-79
2022/02/02 08:09:47;;;;;;;;;2.00;2.00;;;;;14.26;40.23;96825.00;5012477;27;103531;-80
2022/02/02 08:12:16;;;;;;;;;1.75;1.00;;;;;14.25;40.32;96826.09;5012392;27;102706;-79
2022/02/02 08:14:44;;;;;;;;;2.00;1.00;;;;;14.24;40.36;96823.63;5019268;27;109900;-79
2022/02/02 08:17:11;;;;;;;;;2.25;1.00;;;;;14.24;40.45;96831.78;5006698;27;102230;-79
2022/02/02 08:19:40;;;;;;;;;2.75;1.00;;;;;14.22;39.88;96823.91;5018387;27;103386;-79
2022/02/02 08:22:07;;;;;;;;;3.25;3.00;;;;;14.21;39.92;96825.00;5029834;27;102027;-79
2022/02/02 08:24:34;;;;;;;;;1.00;1.00;;;;;14.20;40.45;96827.97;5015329;27;105079;-79
2022/02/02 08:27:01;;;;;;;;;2.00;2.00;;;;;14.19;39.96;96837.19;5018598;27;101800;-79
2022/02/02 08:29:28;;;;;;;;;2.00;0.75;;;;;14.17;40.47;96848.34;5014416;27;103992;-79
2022/02/02 08:31:55;;;;;;;;;1.00;1.00;;;;;14.16;40.33;96844.00;5010466;27;101874;-79
2022/02/02 08:34:22;;;;;;;;;1.00;1.00;;;;;14.14;40.39;96846.16;5005143;27;101905;-79
2022/02/02 08:36:53;;;;;;;;;2.00;2.00;;;;;14.13;39.82;96844.53;5025777;27;109813;-79
2022/02/02 08:41:56;;;;;;;;;2.50;1.00;;;;;14.11;39.82;96849.41;5022432;27;102458;-79
2022/02/02 08:44:28;;;;;;;;;2.50;1.25;;;;;14.13;39.94;96849.16;5026251;27;101724;-79
2022/02/02 08:47:02;;;;;;;;;1.50;1.00;;;;;14.12;39.96;96840.19;5019537;27;101957;-79
2022/02/02 08:49:34;;;;;;;;;3.00;1.00;;;;;14.12;39.97;96845.63;5018685;27;103394;-79
2022/02/02 08:52:02;;;;;;;;;1.00;1.00;;;;;14.11;40.04;96852.13;5030394;27;102151;-79
2022/02/02 08:54:36;;;;;;;;;1.00;1.00;;;;;14.13;39.92;96865.47;5009849;27;102192;-79
2022/02/02 09:02:05;;;;;;;;;1.25;1.00;;;;;14.14;40.68;96869.78;5019489;27;101807;-79
2022/02/02 09:07:18;;;;;;;;;3.00;2.00;;;;;14.18;40.54;96873.63;5013829;27;101711;-79
2022/02/02 09:09:55;;;;;;;;;2.00;1.50;;;;;14.19;40.78;96873.34;5009074;27;103361;-79
2022/02/02 09:25:54;;;;;;;;;0.75;0.75;;;;;14.32;40.48;96890.28;5004783;27;101903;-79
2022/02/02 09:36:22;;;;;;;;;2.00;1.00;;;;;14.37;40.26;96893.00;5019746;27;101778;-79
2022/02/02 09:38:54;;;;;;;;;1.00;1.00;;;;;14.38;40.02;96900.09;5018293;27;102117;-79
2022/02/02 09:43:54;;;;;;;;;1.00;1.00;;;;;14.38;40.08;96902.81;5016678;27;101845;-79
2022/02/02 09:46:25;;;;;;;;;1.75;1.75;;;;;14.38;40.00;96913.69;4993439;28;102003;-79
2022/02/02 09:48:57;;;;;;;;;0.75;0.75;;;;;14.37;40.39;96895.72;5006526;27;101750;-79
2022/02/02 09:51:37;;;;;;;;;1.75;1.75;;;;;14.38;40.32;96913.69;5011798;27;103338;-79
2022/02/02 09:55:00;;;;;;;;;2.00;1.00;;;;;14.37;39.71;96910.16;5022492;27;102272;-80
2022/02/02 10:05:07;;;;;;;;;2.25;1.75;;;;;14.37;39.92;96929.19;5015242;27;101674;-79
2022/02/02 10:14:03;;;;;;;;;1.00;1.00;;;;;14.35;40.35;96911.47;4987909;27;110027;-79
2022/02/02 10:15:58;;;;;;;;;2.25;2.00;;;;;14.33;39.82;96917.19;5025044;27;101928;-80
2022/02/02 10:18:31;;;;;;;;;2.75;1.00;;;;;14.32;40.31;96910.09;5016275;27;102121;-79
2022/02/02 10:20:59;;;;;;;;;2.00;1.00;;;;;14.30;40.30;96913.09;5011803;27;101924;-79
2022/02/02 10:23:27;;;;;;;;;1.50;1.00;;;;;14.29;40.48;96913.34;5010477;27;103365;-79
2022/02/02 10:25:58;;;;;;;;;1.00;1.00;;;;;14.27;40.17;96908.19;5005206;27;101656;-79
2022/02/02 10:28:29;;;;;;;;;1.25;1.00;;;;;14.26;40.06;96911.19;5002129;27;102029;-79
2022/02/02 10:31:03;;;;;;;;;0.00;0.00;;;;;14.26;40.21;96913.91;5011439;27;101832;-79
2022/02/02 10:33:31;;;;;;;;;0.00;0.00;;;;;14.25;39.94;96904.91;5015177;27;103184;-79
2022/02/02 10:36:22;;;;;;;;;1.25;1.25;;;;;14.24;40.48;96918.75;5016149;27;101831;-79
2022/02/02 10:39:07;;;;;;;;;0.00;0.00;;;;;14.25;39.73;96926.66;5023776;27;101740;-79
2022/02/02 10:44:38;;;;;;;;;1.00;1.00;;;;;14.27;39.84;96920.97;5003643;27;108310;-80
2022/02/02 10:47:23;;;;;;;;;1.50;1.50;;;;;14.27;39.88;96923.69;5015391;27;101798;-79
2022/02/02 10:50:01;;;;;;;;;3.00;1.00;;;;;14.29;40.29;96935.09;5013763;27;104714;-80
2022/02/02 10:52:55;;;;;;;;;1.00;1.00;;;;;14.29;40.21;96927.78;4999466;27;102709;-79
2022/02/02 10:58:22;;;;;;;;;1.00;1.00;;;;;14.34;39.80;96931.59;5026344;27;101807;-80
2022/02/02 11:01:08;;;;;;;;;0.00;0.00;;;;;14.34;39.75;96931.59;5023302;27;106695;-80
2022/02/02 11:06:41;;;;;;;;;1.00;1.00;;;;;14.39;39.66;96934.38;5020110;27;108104;-80
2022/02/02 11:09:10;;;;;;;;;1.00;1.00;;;;;14.41;39.73;96946.59;5017896;27;101821;-80
2022/02/02 11:11:44;;;;;;;;;1.25;1.25;;;;;14.42;40.34;96952.84;5028113;27;101641;-80
2022/02/02 11:14:19;;;;;;;;;2.50;2.00;;;;;14.44;39.55;96943.38;5014448;27;101887;-79
2022/02/02 11:16:49;;;;;;;;;1.50;1.25;;;;;14.47;39.68;96955.59;5000240;27;103612;-79
2022/02/02 11:19:17;;;;;;;;;2.00;1.00;;;;;14.47;39.94;96951.00;5032405;27;102010;-80
2022/02/02 11:21:44;;;;;;;;;1.00;1.00;;;;;14.49;40.15;96948.84;5009677;27;101824;-79
2022/02/02 11:24:31;;;;;;;;;1.00;1.00;;;;;14.51;40.29;96940.38;5006237;27;101893;-79
2022/02/02 11:26:58;;;;;;;;;1.00;1.00;;;;;14.53;39.89;96954.56;4984387;27;103402;-79
2022/02/02 11:29:42;;;;;;;;;2.00;0.75;;;;;14.52;40.35;96953.72;5037062;27;101962;-79
2022/02/02 11:32:13;;;;;;;;;0.25;0.25;;;;;14.54;40.43;96953.47;5014266;27;104493;-79
2022/02/02 11:34:40;;;;;;;;;0.50;0.00;;;;;14.53;40.04;96960.00;5016904;27;101804;-79
2022/02/02 11:37:12;;;;;;;;;1.50;1.00;;;;;14.53;39.91;96957.28;5005681;27;103382;-80
2022/02/02 11:39:59;;;;;;;;;1.00;1.00;;;;;14.53;39.73;96951.84;5005857;27;102280;-79
2022/02/02 11:42:56;;;;;;;;;1.00;1.00;;;;;14.53;40.28;96954.56;5010152;27;101900;-79
2022/02/02 11:45:46;;;;;;;;;2.00;1.00;;;;;14.54;40.01;96950.75;5012386;27;101796;-79
2022/02/02 11:48:57;;;;;;;;;1.00;1.00;;;;;14.53;39.91;96949.94;5019895;27;107853;-79
2022/02/02 11:51:43;;;;;;;;;2.25;0.75;;;;;14.56;40.13;96948.56;5008942;27;104031;-79
2022/02/02 11:54:14;;;;;;;;;1.00;0.75;;;;;14.55;39.85;96957.81;5018356;27;101743;-79
2022/02/02 11:57:17;;;;;;;;;1.00;1.00;;;;;14.53;40.02;96955.38;5026790;27;102060;-79
2022/02/02 12:00:21;;;;;;;;;2.25;1.00;;;;;14.53;39.50;96963.53;5020660;27;108064;-79
2022/02/02 12:03:12;;;;;;;;;1.00;1.00;;;;;14.51;40.21;96979.28;5014284;27;102180;-80
2022/02/02 12:08:42;;;;;;;;;1.75;1.00;;;;;14.51;40.29;96983.91;5013062;27;102761;-79
2022/02/02 12:47:57;;;;;;;;;1.00;1.00;;;;;14.43;39.99;97046.97;5022059;27;101960;-79
2022/02/02 13:02:09;;;;;;;;;2.00;1.00;;;;;14.51;40.20;97047.28;5012745;27;101935;-80
2022/02/02 13:04:37;;;;;;;;;3.00;1.00;;;;;14.53;39.81;97057.91;5022609;27;101739;-79
2022/02/02 13:07:14;;;;;;;;;1.00;1.00;;;;;14.54;39.76;97062.28;5011504;27;103387;-79
2022/02/02 13:09:43;;;;;;;;;1.00;0.50;;;;;14.54;39.77;97065.81;5032834;27;101813;-79
2022/02/02 13:13:01;;;;;;;;;2.00;1.00;;;;;14.56;39.80;97060.09;5015619;27;109569;-80
2022/02/02 13:15:37;;;;;;;;;2.50;1.25;;;;;14.58;40.09;97066.09;5022453;27;102122;-80
2022/02/02 13:18:31;;;;;;;;;0.50;0.00;;;;;14.58;39.96;97068.81;5013010;27;107790;-80
2022/02/02 13:26:20;;;;;;;;;1.50;1.00;;;;;14.60;39.84;97072.91;5025814;27;103048;-79
2022/02/02 13:29:05;;;;;;;;;0.75;0.75;;;;;14.62;40.03;97078.09;5004668;27;103481;-79
2022/02/02 13:34:13;;;;;;;;;1.00;0.75;;;;;14.59;39.86;97100.38;5011388;27;101672;-79
2022/02/02 13:42:18;;;;;;;;;2.00;0.00;;;;;14.60;40.14;97102.00;5012805;27;103059;-80
2022/02/02 13:42:42;;;;;;;;;1.00;1.00;;;;;14.59;40.14;97111.25;5010852;27;101687;-79
2022/02/02 13:45:38;;;;;;;;;0.00;0.00;;;;;14.57;39.65;97107.97;5013662;27;101503;-79
2022/02/02 13:48:49;;;;;;;;;1.00;1.00;;;;;14.55;39.79;97112.84;5017943;27;101866;-79
2022/02/02 13:51:49;;;;;;;;;0.75;0.75;;;;;14.54;39.89;97120.22;5011426;27;107911;-79
2022/02/02 13:54:32;;;;;;;;;2.00;1.00;;;;;14.53;39.73;97145.75;5014363;27;105008;-79
2022/02/02 13:57:29;;;;;;;;;1.00;0.75;;;;;14.50;39.92;97153.63;4997128;27;101563;-80
2022/02/02 14:11:10;;;;;;;;;1.00;1.00;;;;;14.44;40.25;97171.81;4991433;27;101780;-79
2022/02/02 14:33:00;;;;;;;;;0.25;0.00;;;;;14.32;40.22;97192.88;5009926;27;102194;-79
2022/02/02 14:35:27;;;;;;;;;1.00;1.00;;;;;14.31;39.90;97204.84;5010884;27;103358;-79
2022/02/02 14:37:54;;;;;;;;;0.00;0.00;;;;;14.32;40.30;97209.19;5016214;27;101702;-79
2022/02/02 14:40:31;;;;;;;;;1.00;0.00;;;;;14.32;40.21;97215.44;5007684;27;101856;-80
2022/02/02 14:43:01;;;;;;;;;0.00;0.00;;;;;14.32;39.78;97223.59;5010882;27;102077;-79
2022/02/02 14:45:31;;;;;;;;;1.50;1.00;;;;;14.32;39.94;97229.03;5009791;27;103336;-79
2022/02/02 14:48:06;;;;;;;;;0.00;0.00;;;;;14.35;40.05;97235.06;5018857;27;102645;-79
2022/02/02 15:24:40;;;;;;;;;1.50;0.00;;;;;14.49;40.36;97279.81;5013974;27;104117;-79
2022/02/02 15:29:45;;;;;;;;;1.00;1.00;;;;;14.49;39.86;97279.81;5021969;27;103337;-80
2022/02/02 15:32:12;;;;;;;;;0.50;0.50;;;;;14.49;40.04;97287.97;5015771;27;102233;-79
2022/02/02 15:34:46;;;;;;;;;1.25;0.50;;;;;14.48;40.36;97291.78;5022633;27;101611;-79
2022/02/02 15:40:03;;;;;;;;;0.00;0.00;;;;;14.47;40.28;97295.56;5015076;27;103338;-79
2022/02/02 15:42:47;;;;;;;;;0.25;0.00;;;;;14.46;39.82;97304.78;5013249;27;102064;-79
2022/02/02 15:57:31;;;;;;;;;0.00;0.00;;;;;14.39;40.07;97329.50;5014861;27;101737;-79
2022/02/02 15:59:24;;;;;;;;;1.00;1.00;;;;;14.38;39.97;97335.19;5006747;27;102227;-79
2022/02/02 16:02:13;;;;;;;;;0.50;0.00;;;;;14.38;39.98;97340.63;5012224;27;103395;-79
2022/02/02 16:04:40;;;;;;;;;1.00;0.00;;;;;14.38;39.76;97354.22;5019840;27;101835;-80
2022/02/02 16:07:10;;;;;;;;;1.00;0.00;;;;;14.36;40.54;97348.22;5013076;27;102054;-79
2022/02/02 16:09:51;;;;;;;;;0.50;0.50;;;;;14.35;40.61;97357.41;5018601;27;101984;-79
2022/02/02 16:14:58;;;;;;;;;0.00;0.00;;;;;14.32;40.13;97366.88;5012442;27;101936;-79
2022/02/02 16:36:47;;;;;;;;;0.00;0.00;;;;;14.24;39.95;97419.84;5011652;27;101808;-79
2022/02/02 16:39:21;;;;;;;;;3.00;0.00;;;;;14.27;40.12;97424.75;5034216;27;109569;-79
2022/02/02 16:44:33;;;;;;;;;1.00;1.00;;;;;14.29;40.69;97436.22;5019699;27;108138;-80
2022/02/02 16:47:00;;;;;;;;;2.00;1.00;;;;;14.31;40.18;97435.97;5012889;27;102190;-79
2022/02/02 16:49:27;;;;;;;;;0.00;0.00;;;;;14.32;40.50;97434.06;5018239;27;102422;-80
2022/02/02 16:51:54;;;;;;;;;1.00;1.00;;;;;14.33;40.17;97450.13;5009532;27;102130;-80
2022/02/02 16:54:27;;;;;;;;;0.50;0.50;;;;;14.34;40.64;97464.53;5018950;27;103374;-79
2022/02/02 17:26:14;;;;;;;;;1.00;1.00;;;;;14.38;40.62;97578.03;5011173;27;102066;-80
2022/02/02 17:32:55;;;;;;;;;0.75;0.25;;;;;14.36;40.60;97584.81;4992514;27;101702;-79
2022/02/02 17:35:29;;;;;;;;;1.00;0.25;;;;;14.35;39.96;97588.56;5021063;27;102090;-79
2022/02/02 17:38:16;;;;;;;;;0.50;0.50;;;;;14.34;39.98;97593.19;5017172;27;108073;-80
2022/02/02 17:43:37;;;;;;;;;1.00;0.00;;;;;14.32;40.70;97611.63;5019517;27;102581;-79
2022/02/02 17:56:13;;;;;;;;;1.00;1.00;;;;;14.32;40.08;97614.34;5008422;27;104354;-79
2022/02/02 18:19:07;;;;;;;;;1.00;0.00;;;;;14.17;40.27;97707.41;4992518;27;102048;-79
2022/02/02 18:21:35;;;;;;;;;0.25;0.25;;;;;14.17;40.57;97718.28;5026456;27;103604;-79
2022/02/02 18:26:42;;;;;;;;;0.75;0.25;;;;;14.16;40.81;97735.66;5003722;27;101843;-79
2022/02/02 18:29:19;;;;;;;;;0.75;0.00;;;;;14.18;40.79;97744.38;5017322;27;102064;-79
2022/02/02 18:32:13;;;;;;;;;1.25;0.00;;;;;14.19;40.51;97751.47;5023753;27;103416;-79
2022/02/02 18:34:55;;;;;;;;;0.00;0.00;;;;;14.19;40.55;97754.19;5015060;27;101807;-79
2022/02/02 18:38:41;;;;;;;;;0.75;0.00;;;;;14.22;40.77;97759.16;5031862;27;101993;-79
2022/02/02 19:30:55;;;;;;;;;1.00;0.75;;;;;14.31;40.01;97827.56;5010360;27;103391;-80
2022/02/02 19:37:18;;;;;;;;;1.00;1.00;;;;;14.28;40.26;97875.06;5016072;27;101785;-79
2022/02/02 19:37:26;;;;;;;;;0.50;0.25;;;;;14.27;40.50;97886.22;5011124;27;108161;-80
2022/02/02 19:40:07;;;;;;;;;0.00;0.00;;;;;14.25;40.67;97888.34;5015838;27;101990;-80
2022/02/02 20:11:39;;;;;;;;;1.00;1.00;;;;;14.09;40.58;97968.78;4995090;27;101731;-79
2022/02/02 20:14:06;;;;;;;;;1.25;0.50;;;;;14.10;40.91;97969.59;5015979;27;101530;-79
2022/02/02 20:16:33;;;;;;;;;1.00;1.00;;;;;14.13;40.78;97974.56;5014998;27;103669;-79
2022/02/02 20:19:04;;;;;;;;;2.00;0.00;;;;;14.14;40.49;97966.16;5015792;27;103344;-80
2022/02/02 20:21:35;;;;;;;;;0.75;0.75;;;;;14.14;40.46;97963.44;5023340;27;102372;-79
2022/02/02 20:24:05;;;;;;;;;1.75;1.00;;;;;14.14;40.32;97958.00;5017153;27;102133;-79
2022/02/02 20:26:34;;;;;;;;;1.00;1.00;;;;;14.16;40.28;97977.63;5013832;27;101805;-79
2022/02/02 20:29:02;;;;;;;;;1.25;0.25;;;;;14.16;40.73;97993.94;4993344;27;108242;-80
2022/02/02 20:31:32;;;;;;;;;1.00;0.50;;;;;14.18;40.70;98010.81;5001809;27;102202;-79
2022/02/02 20:33:59;;;;;;;;;2.00;1.00;;;;;14.19;40.86;98015.19;5010611;27;109308;-79
2022/02/02 20:36:26;;;;;;;;;2.00;1.00;;;;;14.22;40.56;98017.47;5020259;27;102086;-80
2022/02/02 20:38:53;;;;;;;;;1.00;1.00;;;;;14.22;40.25;98020.19;5012609;27;103435;-79
2022/02/02 20:41:21;;;;;;;;;2.00;1.00;;;;;14.24;40.34;98033.53;5014515;27;102003;-79
2022/02/02 20:43:58;;;;;;;;;1.00;1.00;;;;;14.25;40.72;98027.84;5008355;27;101926;-79
2022/02/02 21:03:39;;;;;;;;;1.50;1.00;;;;;14.29;39.99;98058.09;5009504;27;104851;-80
2022/02/02 21:05:50;;;;;;;;;1.25;1.25;;;;;14.27;40.42;98058.34;5007266;27;101795;-79
2022/02/02 21:08:25;;;;;;;;;1.25;1.00;;;;;14.27;40.63;98069.22;5007975;27;102138;-79
2022/02/02 21:10:54;;;;;;;;;1.50;1.00;;;;;14.27;40.22;98074.66;5014352;27;103349;-79
2022/02/02 21:13:45;;;;;;;;;1.00;1.00;;;;;14.27;40.09;98099.13;5026525;27;101659;-79
2022/02/02 21:16:18;;;;;;;;;3.00;1.75;;;;;14.27;40.41;98085.53;5006823;27;101823;-79
2022/02/02 21:18:47;;;;;;;;;1.00;1.00;;;;;14.26;40.51;98100.22;5016213;27;101770;-79
2022/02/02 21:21:21;;;;;;;;;1.00;1.00;;;;;14.25;40.89;98087.69;5006943;27;103511;-80
2022/02/02 21:26:36;;;;;;;;;1.00;1.00;;;;;14.22;40.84;98099.03;5030688;27;103168;-79
2022/02/02 21:29:03;;;;;;;;;1.00;1.00;;;;;14.22;40.15;98098.22;5044456;27;101984;-79
2022/02/02 21:31:30;;;;;;;;;2.00;1.00;;;;;14.22;40.01;98111.81;5031044;27;103355;-79
2022/02/02 21:33:57;;;;;;;;;2.00;1.00;;;;;14.21;40.89;98119.13;5009341;27;102313;-79
2022/02/02 21:36:24;;;;;;;;;1.00;1.00;;;;;14.20;40.32;98120.19;5010428;27;102232;-79
2022/02/02 21:39:02;;;;;;;;;1.50;1.00;;;;;14.21;40.36;98127.28;5001885;27;101979;-79
2022/02/02 21:41:34;;;;;;;;;1.00;1.00;;;;;14.19;40.28;98134.84;5009295;27;103466;-80
2022/02/02 21:44:04;;;;;;;;;0.75;0.00;;;;;14.18;40.83;98135.91;5007847;27;102024;-80
2022/02/02 21:46:31;;;;;;;;;1.00;1.00;;;;;14.17;40.58;98145.13;5018125;27;101767;-79
2022/02/02 21:49:02;;;;;;;;;1.50;1.00;;;;;14.15;40.27;98144.53;4999134;27;102123;-79
2022/02/02 21:51:38;;;;;;;;;0.50;0.50;;;;;14.15;40.80;98155.41;5009561;27;103306;-79
2022/02/02 21:54:05;;;;;;;;;2.75;1.75;;;;;14.13;40.16;98151.28;5007883;27;101683;-79
2022/02/02 21:56:32;;;;;;;;;1.00;1.00;;;;;14.13;40.65;98159.44;5014800;27;101694;-80
2022/02/02 21:58:59;;;;;;;;;2.00;1.75;;;;;14.11;40.28;98173.25;5009051;27;102320;-79